Matagorda, TX (77457)

6:58 PM CDT on September 03, 2015 (GMT -0500)
KTXMATAG2 | | Change Station
CLOSE
Current Station
Personal Weather Station
Location: Matagorda, TX
Elevation: 10 ft
Nearby Weather Stations

Elev 10 ft 28.69 °N, 95.97 °W | Updated 39 days ago

Mostly Cloudy
Mostly Cloudy
79 °F
Feels Like 79 °F
N
6
Wind Variable Wind from SE
Gusts mph

Today
High -- | Low -- °F
--% Chance of Precip.
Yesterday
High -- | Low -- °F
Precip. -- in
7:02 AM 7:43 PM
Waning Gibbous, 65% visible
Pressure 29.84 in
Visibility 10.0 miles
Clouds Clear
Dew Point 75 °F
Humidity 89%
Rainfall in
Snow Depth Not available.
UV 1 out of 12
Pollen 6.60 out of 12
Air Quality Not available.
Flu Activity Not available.
METAR KPSX 032353Z AUTO 12009KT 10SM CLR 29/24 A2984 RMK AO2 SLP105 T02890244 10311 20289 56010
Pressure 29.84 in
Visibility 10.0 miles
Clouds Clear
Dew Point 75 °F
Humidity 89%
Rainfall in
Snow Depth Not available.
UV 1 out of 12
Pollen 6.60 out of 12
Air Quality Not available.
Flu Activity Not available.
METAR KPSX 032353Z AUTO 12009KT 10SM CLR 29/24 A2984 RMK AO2 SLP105 T02890244 10311 20289 56010

10-Day Weather Forecast

×

Almanac

Astronomy

Sep. 03, 2015 Rise Set
Actual Time
Civil Twilight
Nautical Twilight
Astronomical Twilight
Moon
Length of Visible Light
Length of Day
Tomorrow will be .
, % of the Moon is Illuminated

Today's Extremes

State Highs State Lows

Community

WunderPhotos

Upload Photos

1,852,063 photos uploaded!

WunderBlogs® & News

Nearby

Air Quality

  Air Quality AQ Index Pollutant
Not available.

Snow Depth

Station Depth Elevation

Earthquake Activity

City Distance Mag. Time & Date
Minimum magnitude displayed is 2.5.

Coastal Water Temperatures

Place Temperature

Stations

Nearby Weather Stations

Station Location Temp. Windchill Dew Point Humidity Wind Precip. Elev Updated Type